createdAt,value
2018-10-11T00:02:38.961Z,99.60
2018-10-11T00:07:43.359Z,99.60
2018-10-11T00:12:48.460Z,99.60
2018-10-11T00:17:53.087Z,99.60
2018-10-11T00:22:57.458Z,99.60
2018-10-11T00:28:02.036Z,99.60
2018-10-11T00:33:07.066Z,99.60
2018-10-11T00:38:11.862Z,99.60
2018-10-11T00:43:16.308Z,99.60
2018-10-11T00:48:20.978Z,99.60
2018-10-11T00:53:25.385Z,99.60
2018-10-11T00:58:29.939Z,99.60
2018-10-11T01:03:34.456Z,99.20
2018-10-11T01:08:39.017Z,99.00
2018-10-11T01:13:43.612Z,99.60
2018-10-11T01:18:47.833Z,99.60
2018-10-11T01:23:52.331Z,99.60
2018-10-11T01:28:56.683Z,99.60
2018-10-11T01:34:01.149Z,99.60
2018-10-11T01:39:06.137Z,99.50
2018-10-11T01:44:10.863Z,98.70
2018-10-11T01:49:15.638Z,99.60
2018-10-11T01:54:20.181Z,99.60
2018-10-11T01:59:24.647Z,99.60
2018-10-11T02:04:29.827Z,99.60
2018-10-11T02:09:34.497Z,99.60
2018-10-11T02:14:38.986Z,99.60
2018-10-11T02:19:43.344Z,99.60
2018-10-11T02:24:48.400Z,99.60
2018-10-11T02:29:52.912Z,99.60
2018-10-11T02:34:58.213Z,99.60
2018-10-11T02:40:03.401Z,99.60
2018-10-11T02:45:09.741Z,99.60
2018-10-11T02:50:14.297Z,99.60
2018-10-11T02:55:26.148Z,99.60
2018-10-11T03:00:31.001Z,99.60
2018-10-11T03:05:38.673Z,99.60
2018-10-11T03:10:43.349Z,99.60
2018-10-11T03:15:49.034Z,99.60
2018-10-11T03:20:53.562Z,99.60
2018-10-11T03:25:58.852Z,99.60
2018-10-11T03:31:04.012Z,99.60
2018-10-11T03:36:08.333Z,99.60
2018-10-11T03:41:12.681Z,99.60
2018-10-11T03:46:17.376Z,99.60
2018-10-11T03:51:22.204Z,99.60
2018-10-11T03:56:26.759Z,99.60
2018-10-11T04:01:31.074Z,99.60
2018-10-11T04:06:35.623Z,99.60
2018-10-11T04:11:40.043Z,99.60
2018-10-11T04:16:44.337Z,99.60
2018-10-11T04:21:49.846Z,99.60
2018-10-11T04:26:54.345Z,99.60
2018-10-11T04:31:58.664Z,99.60
2018-10-11T04:37:03.003Z,99.60
2018-10-11T04:42:08.025Z,99.60
2018-10-11T04:47:12.997Z,99.60
2018-10-11T04:52:17.382Z,99.60
2018-10-11T04:57:21.901Z,99.60
2018-10-11T05:02:26.388Z,99.60
2018-10-11T05:07:30.712Z,99.60
2018-10-11T05:12:35.341Z,99.60
2018-10-11T05:17:39.950Z,99.60
2018-10-11T05:22:44.244Z,99.60
2018-10-11T05:27:49.024Z,99.60
2018-10-11T05:32:53.673Z,99.60
2018-10-11T05:37:58.510Z,99.60
2018-10-11T05:43:03.254Z,99.60
2018-10-11T05:48:07.634Z,99.60
2018-10-11T05:53:12.013Z,99.60
2018-10-11T05:58:16.816Z,99.60
2018-10-11T06:03:22.213Z,99.60
2018-10-11T06:08:26.598Z,99.60
2018-10-11T06:13:31.079Z,99.60
2018-10-11T06:18:35.653Z,99.60
2018-10-11T06:23:40.743Z,99.60
2018-10-11T06:28:45.861Z,99.60
2018-10-11T06:33:50.388Z,99.60
2018-10-11T06:38:56.536Z,99.60
2018-10-11T06:44:00.840Z,99.60
2018-10-11T06:49:05.748Z,99.60
2018-10-11T06:54:11.510Z,99.60
2018-10-11T06:59:15.963Z,99.60
2018-10-11T07:04:20.142Z,99.60
2018-10-11T07:09:25.332Z,99.60
2018-10-11T07:14:30.287Z,99.60
2018-10-11T07:19:34.541Z,99.60
2018-10-11T07:24:39.738Z,99.60
2018-10-11T07:29:44.714Z,99.60
2018-10-11T07:34:49.284Z,99.60
2018-10-11T07:39:53.785Z,99.60
2018-10-11T07:44:58.637Z,99.60
2018-10-11T07:50:05.296Z,99.60
2018-10-11T07:55:10.253Z,99.60
2018-10-11T08:00:14.598Z,99.60
2018-10-11T08:05:18.961Z,99.60
2018-10-11T08:10:23.371Z,99.60
2018-10-11T08:15:28.143Z,99.60
2018-10-11T08:20:32.538Z,99.60
2018-10-11T08:25:38.114Z,99.60
2018-10-11T08:30:43.338Z,99.60
2018-10-11T08:35:47.822Z,99.60
2018-10-11T08:40:52.754Z,99.60
2018-10-11T08:45:56.935Z,99.60
2018-10-11T08:51:01.297Z,99.60
2018-10-11T08:56:05.840Z,99.60
2018-10-11T09:01:10.072Z,99.60
2018-10-11T09:06:14.269Z,99.60
2018-10-11T09:11:30.319Z,99.00
2018-10-11T09:16:35.336Z,99.60
2018-10-11T09:21:39.541Z,95.40
2018-10-11T09:26:47.756Z,95.00
2018-10-11T09:31:52.132Z,93.50
2018-10-11T09:36:56.516Z,90.60
2018-10-11T09:42:01.670Z,87.70
2018-10-11T09:47:06.375Z,85.80
2018-10-11T09:52:11.394Z,90.90
2018-10-11T09:57:22.033Z,92.20
2018-10-11T10:02:27.034Z,91.20
2018-10-11T10:07:38.755Z,90.30
2018-10-11T10:12:43.671Z,92.10
2018-10-11T10:17:48.397Z,93.20
2018-10-11T10:22:54.074Z,94.50
2018-10-11T10:34:09.320Z,96.40
2018-10-11T10:39:13.739Z,90.80
2018-10-11T10:44:18.128Z,83.40
2018-10-11T10:49:22.476Z,82.00
2018-10-11T10:54:29.009Z,81.80
2018-10-11T10:59:33.191Z,77.30
2018-10-11T11:04:37.469Z,74.90
2018-10-11T11:09:44.742Z,74.80
2018-10-11T11:14:49.829Z,79.00
2018-10-11T11:19:54.161Z,80.00
2018-10-11T11:24:58.988Z,79.90
2018-10-11T11:30:03.174Z,79.10
2018-10-11T11:35:07.778Z,78.50
2018-10-11T11:40:16.111Z,76.80
2018-10-11T11:45:20.266Z,78.20
2018-10-11T11:50:26.346Z,79.40
2018-10-11T11:55:30.642Z,81.80
2018-10-11T12:00:34.891Z,84.20
2018-10-11T12:05:39.273Z,87.30
2018-10-11T12:10:43.569Z,88.70
2018-10-11T12:15:47.923Z,88.80
2018-10-11T12:20:53.227Z,89.70
2018-10-11T12:25:57.742Z,90.10
2018-10-11T12:31:02.242Z,91.40
2018-10-11T12:36:07.512Z,91.40
2018-10-11T12:41:12.039Z,93.50
2018-10-11T12:46:16.750Z,94.20
2018-10-11T12:51:21.178Z,94.50
2018-10-11T12:56:25.687Z,95.90
2018-10-11T13:01:30.341Z,95.90
2018-10-11T13:06:34.779Z,95.70
2018-10-11T13:11:39.494Z,95.90
2018-10-11T13:16:43.867Z,96.90
2018-10-11T13:21:48.499Z,97.60
2018-10-11T13:26:53.025Z,98.80
2018-10-11T13:31:57.556Z,99.00
2018-10-11T13:37:02.168Z,99.60
2018-10-11T13:42:06.810Z,99.60
2018-10-11T13:47:14.663Z,99.60
2018-10-11T13:52:22.350Z,97.60
2018-10-11T13:57:28.386Z,97.80
2018-10-11T14:02:28.963Z,98.20
2018-10-11T14:07:33.519Z,97.70
2018-10-11T14:12:37.895Z,98.50
2018-10-11T14:17:42.370Z,99.30
2018-10-11T14:22:46.881Z,98.60
2018-10-11T14:27:53.064Z,99.40
2018-10-11T14:32:57.469Z,99.60
2018-10-11T14:38:01.830Z,99.60
2018-10-11T14:43:07.055Z,99.60
2018-10-11T14:48:11.953Z,99.60
2018-10-11T14:53:16.492Z,99.60
2018-10-11T14:58:20.810Z,99.60
2018-10-11T15:03:25.342Z,99.60
2018-10-11T15:08:30.292Z,99.60
2018-10-11T15:13:35.019Z,99.60
2018-10-11T15:18:39.618Z,99.60
2018-10-11T15:23:44.258Z,99.60
2018-10-11T15:28:51.342Z,99.60
2018-10-11T15:33:55.592Z,99.60
2018-10-11T15:38:59.929Z,99.60
2018-10-11T15:44:04.370Z,99.60
2018-10-11T15:49:09.335Z,99.60
2018-10-11T15:54:14.650Z,99.60
2018-10-11T15:59:20.111Z,99.60
2018-10-11T16:04:25.059Z,99.60
2018-10-11T16:09:29.682Z,99.60
2018-10-11T16:14:34.351Z,99.60
2018-10-11T16:19:39.589Z,99.60
2018-10-11T16:24:44.230Z,99.60
2018-10-11T16:29:48.902Z,99.60
2018-10-11T16:34:53.365Z,99.60
2018-10-11T16:39:57.673Z,99.60
2018-10-11T16:45:02.536Z,99.60
2018-10-11T16:50:07.462Z,99.60
2018-10-11T16:55:11.902Z,99.60
2018-10-11T17:00:16.533Z,99.60
2018-10-11T17:05:21.265Z,99.60
2018-10-11T17:10:26.022Z,99.60
2018-10-11T17:15:30.758Z,99.60
2018-10-11T17:20:35.622Z,99.60
2018-10-11T17:25:41.425Z,99.60
2018-10-11T17:30:46.242Z,99.60
2018-10-11T17:35:52.745Z,99.60
2018-10-11T17:40:58.429Z,99.60
2018-10-11T17:46:03.322Z,99.60
2018-10-11T17:51:08.117Z,99.60
2018-10-11T17:56:13.507Z,99.60
2018-10-11T18:01:18.515Z,99.60
2018-10-11T18:06:23.308Z,99.60
2018-10-11T18:11:27.927Z,99.60
2018-10-11T18:16:33.104Z,99.60
2018-10-11T18:21:37.768Z,99.60
2018-10-11T18:26:42.438Z,99.60
2018-10-11T18:38:09.207Z,99.60
2018-10-11T18:43:18.953Z,99.60
2018-10-11T18:48:29.457Z,99.60
2018-10-11T18:53:38.136Z,99.60
2018-10-11T18:58:46.251Z,99.60
2018-10-11T19:03:52.202Z,99.60
2018-10-11T19:09:02.309Z,99.60
2018-10-11T19:14:10.439Z,99.60
2018-10-11T19:19:17.545Z,99.60
2018-10-11T19:24:28.363Z,99.60
2018-10-11T19:29:35.939Z,99.60
2018-10-11T19:34:42.571Z,99.60
2018-10-11T19:39:47.514Z,99.60
2018-10-11T19:44:52.365Z,99.60
2018-10-11T19:49:57.289Z,99.60
2018-10-11T19:55:04.367Z,99.60
2018-10-11T20:00:12.294Z,99.60
2018-10-11T20:05:17.462Z,99.60
2018-10-11T20:10:22.721Z,99.60
2018-10-11T20:15:27.562Z,99.60
2018-10-11T20:20:32.585Z,99.60
2018-10-11T20:25:38.117Z,99.60
2018-10-11T20:30:42.973Z,99.60
2018-10-11T20:35:47.802Z,99.60
2018-10-11T20:40:52.475Z,99.60
2018-10-11T20:45:57.526Z,99.60
2018-10-11T20:51:02.302Z,99.60
2018-10-11T20:56:07.400Z,99.60
2018-10-11T21:01:12.261Z,99.60
2018-10-11T21:06:16.904Z,99.60
2018-10-11T21:11:21.650Z,99.60
2018-10-11T21:16:26.380Z,99.60
2018-10-11T21:21:31.809Z,99.60
2018-10-11T21:26:36.691Z,99.60
2018-10-11T21:31:41.871Z,99.60
2018-10-11T21:36:46.342Z,99.60
2018-10-11T21:41:50.787Z,99.60
2018-10-11T21:46:55.314Z,99.60
2018-10-11T21:52:00.000Z,99.60
2018-10-11T21:57:04.699Z,99.60
2018-10-11T22:02:09.904Z,99.60
2018-10-11T22:07:15.063Z,99.60
2018-10-11T22:12:19.473Z,99.60
2018-10-11T22:17:24.519Z,99.60
2018-10-11T22:22:29.684Z,99.60
2018-10-11T22:27:34.174Z,99.60
2018-10-11T22:32:38.821Z,99.60
2018-10-11T22:37:43.283Z,99.60
2018-10-11T22:42:47.908Z,99.60
2018-10-11T22:47:52.749Z,99.60
2018-10-11T22:52:57.403Z,99.60
2018-10-11T22:58:02.434Z,99.60
2018-10-11T23:03:07.052Z,99.60
2018-10-11T23:08:12.385Z,99.60
2018-10-11T23:13:16.897Z,99.60
2018-10-11T23:18:21.757Z,99.60
2018-10-11T23:23:26.297Z,99.60
2018-10-11T23:28:31.781Z,99.60
2018-10-11T23:33:36.321Z,99.60
2018-10-11T23:38:40.841Z,99.60
2018-10-11T23:43:45.340Z,99.60
2018-10-11T23:48:50.416Z,99.60
2018-10-11T23:53:55.561Z,99.60
2018-10-11T23:59:01.179Z,99.60
